createdAt,value
2023-02-14T00:01:11.948Z,17.63
2023-02-14T00:04:15.509Z,16.53
2023-02-14T00:07:19.472Z,18.10
2023-02-14T00:10:22.071Z,17.70
2023-02-14T00:13:24.661Z,18.20
2023-02-14T00:16:26.275Z,17.50
2023-02-14T00:19:28.945Z,18.10
2023-02-14T00:22:32.904Z,18.00
2023-02-14T00:25:35.844Z,17.97
2023-02-14T00:28:38.426Z,17.23
2023-02-14T00:31:42.217Z,18.27
2023-02-14T00:34:45.004Z,18.00
2023-02-14T00:38:10.773Z,17.63
2023-02-14T00:41:19.071Z,16.83
2023-02-14T00:44:21.874Z,17.20
2023-02-14T00:47:24.386Z,17.77
2023-02-14T00:50:26.913Z,17.50
2023-02-14T00:53:30.767Z,17.70
2023-02-14T00:57:28.750Z,17.63
2023-02-14T01:00:31.459Z,17.20
2023-02-14T01:03:34.489Z,17.03
2023-02-14T01:06:37.210Z,17.03
2023-02-14T01:09:41.280Z,17.70
2023-02-14T01:12:43.784Z,17.00
2023-02-14T01:16:42.718Z,18.13
2023-02-14T01:19:45.278Z,16.73
2023-02-14T01:23:43.365Z,17.10
2023-02-14T01:27:41.080Z,17.33
2023-02-14T01:30:45.036Z,17.50
2023-02-14T01:33:49.249Z,17.97
2023-02-14T01:36:51.925Z,18.40
2023-02-14T01:39:54.496Z,18.70
2023-02-14T01:42:57.330Z,18.07
2023-02-14T01:46:01.305Z,17.37
2023-02-14T01:49:09.432Z,16.83
2023-02-14T01:52:15.778Z,18.77
2023-02-14T01:55:22.896Z,17.33
2023-02-14T01:58:28.177Z,17.97
2023-02-14T02:01:42.595Z,16.70
2023-02-14T02:04:47.598Z,17.77
2023-02-14T02:07:51.198Z,17.53
2023-02-14T02:10:53.790Z,18.03
2023-02-14T02:13:56.808Z,17.97
2023-02-14T02:17:25.850Z,17.70
2023-02-14T02:20:52.959Z,17.83
2023-02-14T02:24:13.352Z,17.97
2023-02-14T02:27:26.429Z,18.00
2023-02-14T02:31:08.930Z,16.83
2023-02-14T02:34:35.313Z,17.57
2023-02-14T02:37:45.671Z,18.30
2023-02-14T02:40:55.868Z,19.13
2023-02-14T02:44:08.301Z,17.93
2023-02-14T02:47:19.678Z,17.70
2023-02-14T02:50:46.856Z,16.07
2023-02-14T02:53:56.584Z,16.97
2023-02-14T02:57:02.480Z,16.60
2023-02-14T03:00:08.602Z,16.70
2023-02-14T03:03:29.522Z,17.17
2023-02-14T03:06:32.495Z,17.30
2023-02-14T03:10:06.508Z,17.50
2023-02-14T03:13:32.294Z,16.43
2023-02-14T03:16:40.536Z,16.13
2023-02-14T03:20:10.179Z,16.73
2023-02-14T03:23:21.560Z,17.17
2023-02-14T03:26:35.450Z,16.30
2023-02-14T03:29:50.571Z,17.57
2023-02-14T03:33:01.255Z,16.63
2023-02-14T03:36:09.892Z,16.93
2023-02-14T03:39:20.543Z,16.87
2023-02-14T03:42:26.955Z,15.80
2023-02-14T03:45:33.722Z,17.10
2023-02-14T03:48:38.845Z,16.17
2023-02-14T03:51:42.892Z,16.63
2023-02-14T03:54:49.421Z,17.07
2023-02-14T03:57:59.669Z,16.67
2023-02-14T04:01:07.610Z,16.90
2023-02-14T04:04:13.101Z,17.43
2023-02-14T04:07:18.833Z,18.67
2023-02-14T04:10:22.462Z,17.70
2023-02-14T04:13:26.512Z,18.23
2023-02-14T04:16:29.339Z,17.70
2023-02-14T04:19:32.051Z,18.27
2023-02-14T04:22:34.643Z,17.43
2023-02-14T04:25:39.374Z,18.77
2023-02-14T04:28:43.338Z,19.13
2023-02-14T04:31:46.004Z,19.33
2023-02-14T04:34:49.165Z,19.20
2023-02-14T04:37:51.777Z,20.27
2023-02-14T04:40:54.363Z,20.47
2023-02-14T04:43:58.298Z,19.33
2023-02-14T04:47:01.268Z,20.53
2023-02-14T04:50:04.284Z,19.83
2023-02-14T04:53:06.856Z,20.40
2023-02-14T04:56:09.546Z,19.77
2023-02-14T04:59:14.612Z,19.13
2023-02-14T05:02:17.311Z,18.43
2023-02-14T05:05:19.930Z,19.50
2023-02-14T05:08:22.484Z,19.90
2023-02-14T05:11:25.316Z,18.87
2023-02-14T05:14:29.336Z,19.23
2023-02-14T05:17:31.951Z,18.43
2023-02-14T05:20:34.563Z,18.97
2023-02-14T05:23:37.421Z,19.67
2023-02-14T05:26:40.900Z,19.00
2023-02-14T05:29:44.821Z,19.00
2023-02-14T05:32:47.398Z,18.87
2023-02-14T05:35:50.003Z,18.57
2023-02-14T05:38:52.886Z,18.03
2023-02-14T05:41:57.933Z,19.00
2023-02-14T05:45:03.256Z,17.83
2023-02-14T05:48:06.603Z,17.67
2023-02-14T05:51:11.408Z,18.03
2023-02-14T05:54:14.001Z,17.57
2023-02-14T05:57:16.641Z,18.30
2023-02-14T06:00:22.331Z,16.97
2023-02-14T06:03:25.419Z,18.20
2023-02-14T06:06:27.994Z,19.87
2023-02-14T06:09:30.630Z,18.77
2023-02-14T06:12:33.213Z,19.60
2023-02-14T06:15:37.541Z,19.63
2023-02-14T06:18:40.133Z,19.93
2023-02-14T06:21:42.790Z,19.90
2023-02-14T06:24:45.367Z,19.80
2023-02-14T06:27:49.473Z,20.27
2023-02-14T06:30:53.630Z,20.77
2023-02-14T06:33:57.061Z,20.17
2023-02-14T06:36:59.648Z,19.93
2023-02-14T06:40:02.634Z,20.17
2023-02-14T06:43:05.238Z,21.10
2023-02-14T06:46:09.216Z,21.23
2023-02-14T06:49:12.038Z,21.40
2023-02-14T06:52:14.620Z,21.20
2023-02-14T06:55:17.252Z,21.17
2023-02-14T06:58:19.943Z,20.40
2023-02-14T07:01:23.927Z,20.23
2023-02-14T07:04:26.570Z,20.60
2023-02-14T07:07:29.185Z,21.00
2023-02-14T07:10:32.888Z,20.87
2023-02-14T07:13:35.472Z,20.63
2023-02-14T07:16:40.065Z,20.77
2023-02-14T07:19:42.672Z,19.80
2023-02-14T07:22:45.686Z,20.50
2023-02-14T07:25:48.258Z,20.17
2023-02-14T07:28:51.505Z,20.40
2023-02-14T07:31:55.598Z,19.10
2023-02-14T07:34:58.349Z,19.47
2023-02-14T07:38:00.929Z,19.93
2023-02-14T07:41:03.821Z,18.93
2023-02-14T07:44:06.456Z,18.00
2023-02-14T07:47:11.415Z,17.90
2023-02-14T07:50:14.008Z,19.73
2023-02-14T07:53:16.596Z,19.50
2023-02-14T07:56:19.216Z,19.00
2023-02-14T07:59:22.713Z,18.50
2023-02-14T08:02:27.709Z,19.33
2023-02-14T08:05:30.375Z,18.07
2023-02-14T08:08:33.310Z,18.10
2023-02-14T08:11:53.240Z,17.17
2023-02-14T08:15:15.843Z,17.50
2023-02-14T08:18:21.075Z,18.30
2023-02-14T08:21:23.701Z,17.40
2023-02-14T08:24:26.764Z,16.23
2023-02-14T08:27:29.384Z,16.80
2023-02-14T08:30:33.199Z,17.93
2023-02-14T08:33:37.222Z,16.30
2023-02-14T08:36:39.843Z,17.43
2023-02-14T08:39:42.466Z,17.33
2023-02-14T08:42:45.026Z,16.07
2023-02-14T08:45:48.431Z,16.03
2023-02-14T08:48:53.399Z,16.57
2023-02-14T08:51:56.089Z,15.30
2023-02-14T08:54:58.986Z,15.97
2023-02-14T08:58:01.623Z,16.70
2023-02-14T09:01:09.562Z,15.17
2023-02-14T09:04:13.742Z,14.37
2023-02-14T09:07:16.403Z,15.13
2023-02-14T09:10:19.576Z,15.57
2023-02-14T09:13:22.181Z,15.00
2023-02-14T09:16:28.752Z,15.13
2023-02-14T09:19:33.089Z,14.93
2023-02-14T09:22:35.761Z,16.13
2023-02-14T09:25:38.325Z,15.37
2023-02-14T09:28:41.279Z,14.90
2023-02-14T09:31:43.962Z,15.00
2023-02-14T09:34:47.995Z,15.83
2023-02-14T09:38:08.067Z,15.30
2023-02-14T09:41:24.628Z,15.40
2023-02-14T09:44:32.950Z,16.07
2023-02-14T09:47:41.548Z,15.03
2023-02-14T09:50:50.647Z,15.83
2023-02-14T09:53:59.932Z,15.77
2023-02-14T09:57:09.766Z,15.37
2023-02-14T10:00:21.016Z,15.40
2023-02-14T10:03:41.842Z,15.17
2023-02-14T10:06:51.541Z,15.43
2023-02-14T10:10:00.588Z,15.70
2023-02-14T10:13:08.619Z,14.77
2023-02-14T10:16:19.349Z,14.90
2023-02-14T10:19:27.001Z,15.27
2023-02-14T10:22:42.698Z,15.07
2023-02-14T10:25:52.504Z,15.47
2023-02-14T10:28:56.816Z,14.63
2023-02-14T10:32:01.205Z,14.37
2023-02-14T10:35:09.372Z,15.20
2023-02-14T10:38:29.080Z,13.53
2023-02-14T10:41:43.248Z,13.87
2023-02-14T10:44:55.640Z,13.20
2023-02-14T10:48:08.288Z,13.90
2023-02-14T10:51:17.782Z,14.07
2023-02-14T10:54:25.787Z,13.83
2023-02-14T10:57:32.864Z,13.17
2023-02-14T11:00:38.512Z,14.10
2023-02-14T11:03:44.275Z,14.93
2023-02-14T11:06:49.074Z,14.10
2023-02-14T11:09:52.988Z,13.40
2023-02-14T11:12:55.627Z,14.00
2023-02-14T11:16:01.640Z,13.37
2023-02-14T11:19:10.792Z,15.50
2023-02-14T11:22:30.208Z,15.33
2023-02-14T11:25:36.482Z,14.15
2023-02-14T11:28:50.051Z,15.63
2023-02-14T11:31:53.105Z,14.65
2023-02-14T11:35:00.598Z,14.40
2023-02-14T11:38:05.366Z,15.90
2023-02-14T11:41:12.423Z,15.02
2023-02-14T11:44:22.496Z,15.18
2023-02-14T11:47:29.262Z,14.18
2023-02-14T11:50:31.889Z,15.15
2023-02-14T11:53:44.943Z,14.30
2023-02-14T11:56:53.748Z,14.13
2023-02-14T11:59:58.060Z,14.70
2023-02-14T12:03:04.680Z,13.27
2023-02-14T12:06:07.556Z,15.03
2023-02-14T12:09:24.551Z,15.40
2023-02-14T12:12:28.754Z,15.03
2023-02-14T12:15:40.947Z,15.03
2023-02-14T12:18:57.137Z,15.67
2023-02-14T12:22:03.982Z,15.13
2023-02-14T12:25:15.304Z,15.23
2023-02-14T12:28:25.786Z,15.93
2023-02-14T12:31:28.575Z,14.53
2023-02-14T12:34:31.239Z,15.37
2023-02-14T12:37:50.825Z,15.33
2023-02-14T12:41:10.368Z,15.17
2023-02-14T12:44:25.612Z,15.97
2023-02-14T12:47:38.537Z,15.13
2023-02-14T12:50:48.520Z,16.30
2023-02-14T12:54:03.326Z,15.23
2023-02-14T12:57:13.951Z,15.50
2023-02-14T13:00:36.017Z,14.80
2023-02-14T13:04:06.937Z,15.17
2023-02-14T13:07:18.768Z,15.87
2023-02-14T13:10:34.618Z,14.70
2023-02-14T13:13:51.233Z,14.70
2023-02-14T13:17:01.698Z,14.65
2023-02-14T13:20:19.002Z,15.20
2023-02-14T13:23:26.586Z,15.50
2023-02-14T13:26:33.385Z,14.65
2023-02-14T13:29:46.423Z,15.63
2023-02-14T13:32:54.355Z,14.60
2023-02-14T13:36:01.182Z,14.85
2023-02-14T13:39:05.199Z,14.15
2023-02-14T13:42:08.432Z,14.82
2023-02-14T13:45:51.814Z,14.77
2023-02-14T13:49:01.383Z,14.68
2023-02-14T13:52:06.273Z,14.10
2023-02-14T13:55:15.439Z,14.70
2023-02-14T13:58:21.637Z,14.68
2023-02-14T14:01:33.940Z,14.43
2023-02-14T14:04:38.898Z,14.68
2023-02-14T14:07:41.496Z,14.93
2023-02-14T14:10:46.373Z,14.75
2023-02-14T14:13:59.765Z,14.85
2023-02-14T14:17:02.798Z,15.60
2023-02-14T14:20:41.689Z,14.93
2023-02-14T14:23:44.329Z,16.67
2023-02-14T14:26:48.720Z,14.90
2023-02-14T14:29:53.387Z,14.30
2023-02-14T14:32:56.400Z,13.90
2023-02-14T14:36:03.025Z,14.53
2023-02-14T14:39:05.656Z,15.23
2023-02-14T14:42:10.740Z,14.43
2023-02-14T14:45:22.972Z,15.27
2023-02-14T14:48:31.571Z,15.90
2023-02-14T14:51:36.778Z,14.10
2023-02-14T14:54:40.674Z,14.00
2023-02-14T14:57:50.495Z,14.77
2023-02-14T15:00:53.194Z,14.47
2023-02-14T15:03:56.195Z,15.20
2023-02-14T15:07:20.833Z,14.47
2023-02-14T15:10:25.669Z,15.10
2023-02-14T15:13:50.763Z,14.83
2023-02-14T15:16:57.494Z,14.17
2023-02-14T15:20:04.374Z,14.87
2023-02-14T15:23:08.841Z,14.87
2023-02-14T15:26:18.693Z,16.60
2023-02-14T15:29:24.402Z,15.77
2023-02-14T15:32:31.079Z,14.60
2023-02-14T15:35:37.320Z,14.67
2023-02-14T15:38:42.828Z,15.13
2023-02-14T15:41:46.638Z,15.13
2023-02-14T15:44:49.350Z,15.17
2023-02-14T15:47:53.920Z,15.07
2023-02-14T15:50:59.678Z,15.57
2023-02-14T15:54:07.817Z,15.53
2023-02-14T15:57:22.160Z,15.70
2023-02-14T16:00:26.687Z,15.63
2023-02-14T16:03:33.585Z,15.30
2023-02-14T16:06:39.147Z,14.83
2023-02-14T16:09:43.128Z,15.57
2023-02-14T16:12:57.209Z,15.27
2023-02-14T16:16:02.255Z,14.93
2023-02-14T16:19:04.843Z,15.07
2023-02-14T16:22:09.269Z,16.83
2023-02-14T16:25:13.339Z,15.50
2023-02-14T16:28:16.588Z,15.33
2023-02-14T16:31:19.523Z,15.17
2023-02-14T16:34:22.896Z,14.47
2023-02-14T16:37:29.278Z,15.57
2023-02-14T16:40:33.470Z,14.83
2023-02-14T16:43:36.089Z,15.90
2023-02-14T16:46:38.708Z,14.40
2023-02-14T16:49:41.951Z,14.67
2023-02-14T16:52:49.454Z,15.07
2023-02-14T16:55:55.886Z,14.80
2023-02-14T16:58:58.776Z,16.67
2023-02-14T17:02:02.212Z,15.33
2023-02-14T17:05:05.311Z,15.83
2023-02-14T17:08:11.091Z,15.17
2023-02-14T17:11:15.331Z,15.97
2023-02-14T17:14:22.997Z,15.87
2023-02-14T17:17:26.018Z,15.73
2023-02-14T17:20:30.306Z,16.67
2023-02-14T17:23:32.908Z,14.57
2023-02-14T17:26:38.049Z,15.17
2023-02-14T17:29:40.695Z,14.77
2023-02-14T17:32:43.798Z,14.70
2023-02-14T17:35:46.592Z,15.57
2023-02-14T17:38:49.525Z,14.73
2023-02-14T17:41:53.489Z,15.53
2023-02-14T17:44:56.057Z,15.17
2023-02-14T17:47:58.621Z,16.10
2023-02-14T17:51:05.165Z,15.03
2023-02-14T17:54:08.128Z,15.87
2023-02-14T17:57:12.630Z,15.63
2023-02-14T18:00:16.803Z,15.53
2023-02-14T18:03:20.251Z,16.07
2023-02-14T18:06:23.248Z,14.57
2023-02-14T18:09:25.910Z,15.90
2023-02-14T18:12:29.956Z,15.63
2023-02-14T18:15:32.524Z,17.73
2023-02-14T18:18:35.352Z,16.20
2023-02-14T18:21:40.034Z,15.43
2023-02-14T18:24:42.755Z,15.37
2023-02-14T18:27:46.714Z,20.20
2023-02-14T18:30:49.486Z,31.20
2023-02-14T18:33:52.125Z,20.90
2023-02-14T18:36:55.476Z,19.17
2023-02-14T18:39:58.091Z,17.10
2023-02-14T18:43:02.146Z,17.53
2023-02-14T18:46:05.676Z,17.80
2023-02-14T18:49:09.425Z,18.30
2023-02-14T18:52:12.018Z,17.67
2023-02-14T18:55:14.647Z,17.60
2023-02-14T18:58:19.381Z,17.73
2023-02-14T19:01:24.288Z,17.80
2023-02-14T19:04:27.015Z,19.27
2023-02-14T19:07:29.580Z,19.43
2023-02-14T19:10:32.336Z,19.63
2023-02-14T19:13:37.288Z,19.53
2023-02-14T19:16:43.705Z,18.97
2023-02-14T19:19:46.324Z,20.63
2023-02-14T19:22:49.541Z,19.60
2023-02-14T19:25:52.294Z,20.23
2023-02-14T19:28:58.727Z,21.30
2023-02-14T19:32:02.118Z,20.80
2023-02-14T19:35:04.859Z,21.10
2023-02-14T19:38:07.443Z,20.43
2023-02-14T19:41:16.549Z,21.03
2023-02-14T19:44:20.547Z,21.53
2023-02-14T19:47:36.546Z,22.10
2023-02-14T19:50:47.412Z,21.37
2023-02-14T19:53:50.457Z,22.83
2023-02-14T19:56:55.959Z,22.53
2023-02-14T20:00:00.168Z,23.60
2023-02-14T20:03:04.113Z,22.67
2023-02-14T20:06:07.374Z,24.00
2023-02-14T20:09:10.493Z,23.30
2023-02-14T20:12:13.601Z,23.07
2023-02-14T20:15:17.572Z,23.87
2023-02-14T20:18:20.234Z,25.03
2023-02-14T20:21:28.065Z,24.77
2023-02-14T20:24:32.546Z,24.73
2023-02-14T20:27:35.348Z,24.57
2023-02-14T20:30:41.174Z,24.93
2023-02-14T20:33:43.843Z,25.63
2023-02-14T20:36:49.441Z,25.37
2023-02-14T20:39:52.029Z,24.30
2023-02-14T20:42:54.624Z,26.00
2023-02-14T20:46:01.025Z,25.47
2023-02-14T20:49:05.993Z,26.03
2023-02-14T20:52:08.612Z,25.37
2023-02-14T20:55:11.365Z,24.83
2023-02-14T20:58:13.995Z,26.63
2023-02-14T21:01:20.090Z,26.07
2023-02-14T21:04:23.383Z,25.70
2023-02-14T21:07:30.592Z,26.07
2023-02-14T21:10:33.234Z,26.53
2023-02-14T21:13:36.370Z,26.93
2023-02-14T21:16:40.288Z,25.83
2023-02-14T21:19:42.876Z,27.07
2023-02-14T21:22:45.489Z,25.47
2023-02-14T21:25:48.054Z,27.73
2023-02-14T21:28:50.631Z,26.47
2023-02-14T21:31:54.739Z,27.67
2023-02-14T21:34:57.435Z,27.43
2023-02-14T21:38:00.036Z,27.60
2023-02-14T21:41:04.971Z,28.47
2023-02-14T21:44:07.661Z,27.47
2023-02-14T21:47:11.579Z,29.77
2023-02-14T21:50:31.326Z,29.57
2023-02-14T21:53:34.351Z,30.57
2023-02-14T21:56:38.818Z,32.23
2023-02-14T21:59:41.690Z,33.93
2023-02-14T22:02:46.023Z,33.33
2023-02-14T22:05:48.669Z,33.23
2023-02-14T22:08:53.760Z,33.13
2023-02-14T22:11:56.367Z,37.27
2023-02-14T22:15:01.157Z,35.73
2023-02-14T22:18:07.149Z,33.53
2023-02-14T22:21:11.587Z,41.37
2023-02-14T22:24:14.443Z,35.70
2023-02-14T22:27:17.153Z,37.47
2023-02-14T22:30:20.172Z,34.30
2023-02-14T22:33:24.335Z,32.97
2023-02-14T22:36:26.976Z,33.50
2023-02-14T22:39:29.597Z,32.30
2023-02-14T22:42:33.030Z,33.00
2023-02-14T22:45:35.605Z,32.30
2023-02-14T22:48:40.288Z,32.73
2023-02-14T22:51:43.718Z,33.20
2023-02-14T22:54:46.311Z,33.33
2023-02-14T22:57:48.900Z,32.97
2023-02-14T23:00:51.505Z,32.30
2023-02-14T23:03:56.895Z,34.00
2023-02-14T23:06:59.555Z,33.90
2023-02-14T23:10:02.245Z,34.73
2023-02-14T23:13:22.232Z,32.93
2023-02-14T23:16:43.037Z,34.83
2023-02-14T23:20:05.089Z,32.57
2023-02-14T23:23:07.669Z,31.70
2023-02-14T23:26:10.248Z,32.33
2023-02-14T23:29:13.049Z,32.53
2023-02-14T23:32:16.470Z,33.57
2023-02-14T23:35:20.480Z,31.87
2023-02-14T23:38:23.076Z,31.77
2023-02-14T23:41:43.072Z,32.17
2023-02-14T23:44:46.765Z,29.63
2023-02-14T23:47:49.785Z,30.27
2023-02-14T23:50:53.726Z,33.00
2023-02-14T23:53:56.436Z,32.53
2023-02-14T23:56:59.114Z,32.97
